Ana Sayfa
METAR-TAF:

METAR-TAF

Havaalanları :

Hanover County Municipal Airport

Richmond / Ashland, Virginia, Amerika Birleşik Devletleri

Enlem: 37-42-29N, Boylam: 077-26-04W, yükseklik: 62 m

Güncel hava durumu gözlemi

Rapor saat 17:54 UTC de 27 dakika önce yapıldı.
Rüzgar güneydoğudan 5 kt
Sıcaklık 13°C
Nem 51%
Basınç 1013 hPa
Görüş mesafesi: 16.1 km
4900 ft yükseklikte parçalı çok bulutlu
6000 ft yükseklikte parçalı çok bulutlu
8500 ft yükseklikte çok bulutlu

METAR: KOFP 311754Z AUTO 14005KT 10SM BKN049 BKN060 OVC085 13/03 A2991 RMK AO2 SLP129 T01280033 10133 20072 56025

Saat: 14:21 (18:21 UTC)


TAF: eksik

4.000'den fazla havaalanı için hava durumu gözlemleri ve tahminleri (METAR ve TAF raporları).

Kullanılabilir istasyonlar harita üzerinde sarı ve kırmızı noktalarla gösterilir.

İstasyonun adını görmek için fareyi noktanın üzerinde gezdirin.

Sonrasında hava gözlem ve tahminlerini görmek için tıklayın.

Haritayı değiştirmek için: yaklaştırmak için siyah artı işaretli yeşil düğmeye ve uzaklaştırmak için de eksi işaretli düğmeye hızla tıklayın; bitişik haritalar için yeşil okları kullanın.


METAR-TAF: